Time;durP1;ratioP1;P1;durP2;ratioP2;P2;SDS_P1;SDS_P2;PMS_P1;PMS_P2;Temp;Humidity;BMP_temperature;BMP_pressure;BME280_temperature;BME280_humidity;BME280_pressure;Samples;Min_cycle;Max_cycle;Signal;HPM_P1;HPM_P2
2023/01/10 00:01:31;;;;;;;18.77;7.68;;;;;;;;;;6296456;22;20020;-93
2023/01/10 00:03:59;;;;;;;23.63;8.07;;;;;;;;;;6296986;22;20019;-92
2023/01/10 00:06:27;;;;;;;19.20;7.50;;;;;;;;;;6262694;22;20031;-93
2023/01/10 00:08:56;;;;;;;20.08;7.43;;;;;;;;;;6264940;22;20020;-92
2023/01/10 00:14:17;;;;;;;21.30;7.70;;;;;;;;;;6300090;22;20538;-92
2023/01/10 00:16:49;;;;;;;21.48;7.70;;;;;;;;;;6263173;22;20027;-92
2023/01/10 00:19:43;;;;;;;17.23;7.05;;;;;;;;;;6285816;22;20028;-91
2023/01/10 00:22:36;;;;;;;19.75;7.47;;;;;;;;;;6290787;22;20061;-92
2023/01/10 00:25:05;;;;;;;23.20;8.43;;;;;;;;;;6256176;22;20053;-92
2023/01/10 00:27:34;;;;;;;16.30;6.95;;;;;;;;;;6255200;22;20020;-91
2023/01/10 00:30:12;;;;;;;16.85;6.47;;;;;;;;;;6257809;22;20016;-91
2023/01/10 00:32:42;;;;;;;18.95;6.75;;;;;;;;;;6257147;22;20428;-92
2023/01/10 00:35:11;;;;;;;18.48;6.80;;;;;;;;;;6293051;22;20107;-91
2023/01/10 00:37:39;;;;;;;17.55;6.35;;;;;;;;;;6256983;22;20051;-92
2023/01/10 00:40:08;;;;;;;23.98;6.82;;;;;;;;;;6257319;22;20024;-92
2023/01/10 00:45:53;;;;;;;16.42;5.68;;;;;;;;;;6297414;22;20023;-91
2023/01/10 00:48:27;;;;;;;23.65;6.53;;;;;;;;;;6235667;22;20027;-91
2023/01/10 00:50:57;;;;;;;15.60;5.80;;;;;;;;;;6272917;22;20018;-92
2023/01/10 00:53:31;;;;;;;18.40;6.30;;;;;;;;;;6327247;22;20071;-93
2023/01/10 00:56:27;;;;;;;22.65;6.32;;;;;;;;;;6266875;22;20384;-92
2023/01/10 00:58:55;;;;;;;18.48;5.18;;;;;;;;;;6296049;22;20041;-92
2023/01/10 01:01:27;;;;;;;17.75;5.40;;;;;;;;;;6237451;22;20094;-92
2023/01/10 01:03:55;;;;;;;14.90;5.68;;;;;;;;;;6288701;22;20020;-93
2023/01/10 01:06:23;;;;;;;15.32;5.78;;;;;;;;;;6284260;22;20023;-92
2023/01/10 01:08:51;;;;;;;18.15;5.20;;;;;;;;;;6284776;22;20019;-93
2023/01/10 01:11:43;;;;;;;20.23;5.70;;;;;;;;;;6256587;22;20015;-92
2023/01/10 01:14:35;;;;;;;19.35;5.18;;;;;;;;;;6294979;22;20075;-93
2023/01/10 01:17:03;;;;;;;29.55;5.93;;;;;;;;;;6301906;22;20065;-92
2023/01/10 01:19:36;;;;;;;12.15;6.05;;;;;;;;;;6242716;22;20455;-92
2023/01/10 01:22:05;;;;;;;15.32;5.50;;;;;;;;;;6257433;22;20098;-89
2023/01/10 01:24:33;;;;;;;16.50;5.75;;;;;;;;;;6294704;22;20232;-91
2023/01/10 01:27:01;;;;;;;25.80;5.32;;;;;;;;;;6232868;22;20023;-91
2023/01/10 01:29:53;;;;;;;16.80;5.25;;;;;;;;;;6294429;22;20432;-92
2023/01/10 01:32:25;;;;;;;17.15;5.32;;;;;;;;;;6257890;22;20026;-91
2023/01/10 01:34:53;;;;;;;12.57;4.43;;;;;;;;;;6257670;22;20023;-91
2023/01/10 01:37:30;;;;;;;17.15;5.38;;;;;;;;;;6234825;22;20436;-91
2023/01/10 01:39:59;;;;;;;11.88;5.82;;;;;;;;;;6284450;22;20019;-91
2023/01/10 01:42:30;;;;;;;14.73;5.43;;;;;;;;;;6259344;22;20050;-90
2023/01/10 01:45:15;;;;;;;17.67;5.00;;;;;;;;;;6285239;22;20027;-91
2023/01/10 01:47:48;;;;;;;12.10;5.38;;;;;;;;;;6295950;22;20444;-91
2023/01/10 01:50:26;;;;;;;15.73;4.82;;;;;;;;;;6235593;22;20502;-91
2023/01/10 01:52:58;;;;;;;12.15;4.22;;;;;;;;;;6270088;22;20016;-91
2023/01/10 01:55:29;;;;;;;11.15;4.00;;;;;;;;;;6295580;22;20019;-91
2023/01/10 01:57:59;;;;;;;13.18;4.10;;;;;;;;;;6233602;22;20019;-91
2023/01/10 02:00:31;;;;;;;18.25;4.88;;;;;;;;;;6293915;22;20036;-92
2023/01/10 02:03:01;;;;;;;12.00;4.63;;;;;;;;;;6259465;22;20016;-91
2023/01/10 02:05:34;;;;;;;11.88;4.63;;;;;;;;;;6234309;22;20028;-92
2023/01/10 02:08:07;;;;;;;7.93;4.30;;;;;;;;;;6293208;22;20027;-91
2023/01/10 02:10:52;;;;;;;12.10;4.15;;;;;;;;;;6293369;22;20019;-92
2023/01/10 02:13:23;;;;;;;18.63;4.78;;;;;;;;;;6258013;22;20020;-91
2023/01/10 02:15:51;;;;;;;17.33;4.40;;;;;;;;;;6258147;22;20562;-91
2023/01/10 02:18:23;;;;;;;13.77;4.30;;;;;;;;;;6282939;22;20026;-91
2023/01/10 02:20:54;;;;;;;10.32;4.15;;;;;;;;;;6258610;22;20016;-91
2023/01/10 02:23:45;;;;;;;12.50;4.45;;;;;;;;;;6293780;22;20031;-91
2023/01/10 02:26:25;;;;;;;12.90;3.97;;;;;;;;;;6258130;22;20418;-92
2023/01/10 02:29:23;;;;;;;14.63;4.57;;;;;;;;;;6294585;22;20016;-91
2023/01/10 02:32:44;;;;;;;15.60;4.07;;;;;;;;;;6166209;23;20017;-91
2023/01/10 02:35:33;;;;;;;15.50;4.43;;;;;;;;;;6176251;23;20052;-91
2023/01/10 02:38:12;;;;;;;13.85;4.45;;;;;;;;;;6150958;23;20021;-92
2023/01/10 02:41:18;;;;;;;8.52;3.75;;;;;;;;;;6166760;23;20036;-91
2023/01/10 02:44:41;;;;;;;12.68;3.92;;;;;;;;;;6146317;23;20301;-91
2023/01/10 02:47:09;;;;;;;9.57;4.07;;;;;;;;;;6166977;23;20024;-91
2023/01/10 02:50:26;;;;;;;15.50;4.63;;;;;;;;;;6201553;23;20315;-92
2023/01/10 02:53:00;;;;;;;19.25;4.53;;;;;;;;;;6153152;23;20021;-91
2023/01/10 02:56:34;;;;;;;9.95;4.03;;;;;;;;;;6181109;23;20112;-90
2023/01/10 02:59:30;;;;;;;14.38;4.40;;;;;;;;;;6176544;23;20027;-91
2023/01/10 03:02:15;;;;;;;21.00;5.43;;;;;;;;;;6175569;23;20057;-91
2023/01/10 03:05:12;;;;;;;15.20;4.10;;;;;;;;;;6177332;23;20363;-91
2023/01/10 03:07:50;;;;;;;14.38;4.55;;;;;;;;;;6153174;23;20027;-91
2023/01/10 03:10:37;;;;;;;13.85;4.03;;;;;;;;;;6259427;22;20038;-91
2023/01/10 03:13:09;;;;;;;12.93;4.18;;;;;;;;;;6294672;22;20019;-91
2023/01/10 03:16:03;;;;;;;10.15;4.07;;;;;;;;;;6262440;22;20484;-91
2023/01/10 03:18:44;;;;;;;14.88;4.47;;;;;;;;;;6258361;22;20019;-91
2023/01/10 03:21:14;;;;;;;15.50;4.25;;;;;;;;;;6233136;22;20015;-91
2023/01/10 03:23:41;;;;;;;14.75;4.95;;;;;;;;;;6258548;22;20050;-91
2023/01/10 03:26:19;;;;;;;18.15;4.68;;;;;;;;;;6319783;22;20403;-91
2023/01/10 03:29:01;;;;;;;11.05;4.75;;;;;;;;;;6258320;22;20047;-92
2023/01/10 03:31:41;;;;;;;15.20;4.70;;;;;;;;;;6295617;22;20012;-92
2023/01/10 03:34:09;;;;;;;10.15;3.78;;;;;;;;;;6258485;22;20046;-91
2023/01/10 03:36:44;;;;;;;13.43;4.35;;;;;;;;;;6257329;22;20043;-90
2023/01/10 03:39:18;;;;;;;11.45;4.65;;;;;;;;;;6268935;22;20111;-91
2023/01/10 03:42:19;;;;;;;13.02;3.90;;;;;;;;;;6293685;22;20068;-91
2023/01/10 03:44:49;;;;;;;12.88;4.32;;;;;;;;;;6295416;22;20042;-91
2023/01/10 03:47:34;;;;;;;10.98;4.18;;;;;;;;;;6294629;22;20455;-91
2023/01/10 03:50:28;;;;;;;14.10;3.85;;;;;;;;;;6257857;22;20022;-91
2023/01/10 03:52:58;;;;;;;11.05;3.75;;;;;;;;;;6233428;22;20023;-92
2023/01/10 03:55:28;;;;;;;17.83;4.20;;;;;;;;;;6293227;22;20460;-91
2023/01/10 03:57:57;;;;;;;15.57;3.67;;;;;;;;;;6293505;22;20038;-91
2023/01/10 04:00:25;;;;;;;13.13;3.50;;;;;;;;;;6257947;22;20046;-91
2023/01/10 04:02:54;;;;;;;12.05;3.42;;;;;;;;;;6258124;22;20035;-91
2023/01/10 04:05:23;;;;;;;12.65;3.58;;;;;;;;;;6258816;22;20035;-91
2023/01/10 04:07:55;;;;;;;14.48;3.63;;;;;;;;;;6258569;22;20015;-91
2023/01/10 04:10:25;;;;;;;9.32;3.10;;;;;;;;;;6233824;22;20027;-91
2023/01/10 04:13:00;;;;;;;7.90;3.53;;;;;;;;;;6270745;22;20090;-91
2023/01/10 04:15:27;;;;;;;9.43;3.00;;;;;;;;;;6257914;22;20019;-91
2023/01/10 04:17:55;;;;;;;15.60;3.72;;;;;;;;;;6294144;22;20050;-91
2023/01/10 04:20:29;;;;;;;11.90;4.20;;;;;;;;;;6259198;22;20016;-91
2023/01/10 04:23:01;;;;;;;10.18;3.22;;;;;;;;;;6296729;22;20046;-91
2023/01/10 04:25:29;;;;;;;13.90;3.70;;;;;;;;;;6270837;22;20069;-90
2023/01/10 04:27:57;;;;;;;9.57;3.40;;;;;;;;;;6285698;22;20022;-91
2023/01/10 04:30:25;;;;;;;16.27;3.10;;;;;;;;;;6295701;22;20015;-92
2023/01/10 04:32:57;;;;;;;10.77;2.72;;;;;;;;;;6235156;22;20020;-92
2023/01/10 04:35:27;;;;;;;11.27;2.72;;;;;;;;;;6259243;22;20391;-91
2023/01/10 04:37:55;;;;;;;13.10;3.33;;;;;;;;;;6259702;22;20024;-91
2023/01/10 04:40:23;;;;;;;9.60;3.75;;;;;;;;;;6259689;22;20016;-92
2023/01/10 04:42:50;;;;;;;9.32;3.53;;;;;;;;;;6269428;22;20065;-92
2023/01/10 04:45:43;;;;;;;5.88;2.63;;;;;;;;;;6265000;22;20035;-92
2023/01/10 04:48:11;;;;;;;15.82;3.65;;;;;;;;;;6235022;22;20035;-92
2023/01/10 04:50:39;;;;;;;9.35;3.13;;;;;;;;;;6234202;22;20585;-91
2023/01/10 04:53:32;;;;;;;11.15;2.97;;;;;;;;;;6259373;22;20042;-91
2023/01/10 04:56:06;;;;;;;10.10;2.72;;;;;;;;;;6297235;22;20027;-92
2023/01/10 04:58:36;;;;;;;5.55;2.65;;;;;;;;;;6261371;22;20043;-92
2023/01/10 05:01:14;;;;;;;8.50;3.05;;;;;;;;;;6296179;22;20023;-92
2023/01/10 05:03:52;;;;;;;12.98;2.92;;;;;;;;;;6259597;22;20020;-91
2023/01/10 05:06:25;;;;;;;9.98;2.85;;;;;;;;;;6259625;22;20030;-92
2023/01/10 05:08:52;;;;;;;11.65;2.60;;;;;;;;;;6295427;22;20071;-92
2023/01/10 05:11:21;;;;;;;13.57;2.83;;;;;;;;;;6296442;22;20015;-92
2023/01/10 05:13:49;;;;;;;12.02;3.20;;;;;;;;;;6259930;22;20390;-91
2023/01/10 05:16:21;;;;;;;13.55;3.15;;;;;;;;;;6270911;22;20011;-91
2023/01/10 05:19:12;;;;;;;6.57;2.72;;;;;;;;;;6294498;22;20030;-92
2023/01/10 05:21:44;;;;;;;12.07;2.90;;;;;;;;;;6295183;22;20088;-92
2023/01/10 05:24:13;;;;;;;7.32;2.63;;;;;;;;;;6260418;22;20023;-91
2023/01/10 05:26:41;;;;;;;11.23;2.63;;;;;;;;;;6294826;22;20493;-92
2023/01/10 05:29:13;;;;;;;8.70;2.53;;;;;;;;;;6297619;22;20089;-91
2023/01/10 05:32:04;;;;;;;13.07;3.13;;;;;;;;;;6295694;22;20034;-92
2023/01/10 05:34:34;;;;;;;11.98;2.45;;;;;;;;;;6260085;22;20050;-92
2023/01/10 05:40:21;;;;;;;10.23;2.30;;;;;;;;;;6296523;22;20090;-90
2023/01/10 05:42:48;;;;;;;15.70;2.30;;;;;;;;;;6258460;22;20073;-92
2023/01/10 05:45:16;;;;;;;11.02;2.88;;;;;;;;;;6294878;22;20019;-89
2023/01/10 05:47:45;;;;;;;15.40;3.00;;;;;;;;;;6235439;22;20035;-90
2023/01/10 05:50:17;;;;;;;12.63;2.65;;;;;;;;;;6260285;22;20079;-91
2023/01/10 05:52:44;;;;;;;8.35;2.60;;;;;;;;;;6295704;22;20035;-90
2023/01/10 05:55:37;;;;;;;12.93;2.85;;;;;;;;;;6275527;22;20074;-90
2023/01/10 05:58:11;;;;;;;17.73;3.13;;;;;;;;;;6235587;22;20024;-91
2023/01/10 06:01:10;;;;;;;7.22;2.35;;;;;;;;;;6295911;22;20030;-90
2023/01/10 06:03:39;;;;;;;8.00;2.35;;;;;;;;;;6295428;22;20083;-90
2023/01/10 06:06:13;;;;;;;9.45;2.90;;;;;;;;;;6296483;22;20019;-90
2023/01/10 06:08:41;;;;;;;8.80;2.78;;;;;;;;;;6259854;22;20026;-90
2023/01/10 06:11:38;;;;;;;21.35;2.72;;;;;;;;;;6296760;22;20020;-91
2023/01/10 06:14:06;;;;;;;11.27;2.67;;;;;;;;;;6235165;22;20047;-90
2023/01/10 06:16:35;;;;;;;7.55;2.17;;;;;;;;;;6262007;22;20054;-90
2023/01/10 06:19:03;;;;;;;16.92;2.25;;;;;;;;;;6253355;22;20069;-89
2023/01/10 06:21:30;;;;;;;7.75;2.22;;;;;;;;;;6267347;22;20012;-91
2023/01/10 06:23:58;;;;;;;8.27;2.80;;;;;;;;;;6272250;22;20094;-91
2023/01/10 06:26:27;;;;;;;10.18;2.30;;;;;;;;;;6297287;22;20080;-90
2023/01/10 06:29:19;;;;;;;12.15;2.33;;;;;;;;;;6284253;22;20050;-89
2023/01/10 06:32:11;;;;;;;9.15;2.47;;;;;;;;;;6287154;22;20676;-90
2023/01/10 06:34:38;;;;;;;11.90;2.40;;;;;;;;;;6287469;22;20071;-89
2023/01/10 06:37:11;;;;;;;10.57;2.40;;;;;;;;;;6283602;22;20030;-90
2023/01/10 06:39:38;;;;;;;9.65;2.10;;;;;;;;;;6288691;22;20467;-90
2023/01/10 06:42:11;;;;;;;10.52;2.35;;;;;;;;;;6268292;22;20035;-90
2023/01/10 06:44:39;;;;;;;11.40;2.40;;;;;;;;;;6294042;22;20024;-90
2023/01/10 06:47:31;;;;;;;7.90;2.35;;;;;;;;;;6294122;22;20023;-91
2023/01/10 06:50:23;;;;;;;7.00;2.10;;;;;;;;;;6274194;22;20443;-90
2023/01/10 06:52:59;;;;;;;15.65;2.42;;;;;;;;;;6268239;22;20015;-91
2023/01/10 06:56:17;;;;;;;14.25;2.30;;;;;;;;;;6284594;22;20015;-92
2023/01/10 06:58:48;;;;;;;14.40;2.45;;;;;;;;;;6309451;22;20046;-91
2023/01/10 07:01:41;;;;;;;13.27;2.00;;;;;;;;;;6306135;22;20023;-91
2023/01/10 07:04:10;;;;;;;7.97;2.20;;;;;;;;;;6298045;22;20024;-91
2023/01/10 07:06:44;;;;;;;4.68;2.05;;;;;;;;;;6246381;22;20030;-92
2023/01/10 07:09:13;;;;;;;13.23;2.33;;;;;;;;;;6273405;22;20000;-91
2023/01/10 07:11:41;;;;;;;7.88;2.15;;;;;;;;;;6273082;22;20042;-92
2023/01/10 07:14:11;;;;;;;9.40;2.30;;;;;;;;;;6249043;22;20035;-92
2023/01/10 07:23:26;;;;;;;14.75;2.30;;;;;;;;;;6297626;22;20034;-92
2023/01/10 07:26:01;;;;;;;9.32;2.10;;;;;;;;;;6248346;22;20015;-92
2023/01/10 07:28:35;;;;;;;8.43;2.30;;;;;;;;;;6272674;22;20024;-91
2023/01/10 07:31:30;;;;;;;7.80;1.80;;;;;;;;;;6278680;22;20031;-92
2023/01/10 07:33:59;;;;;;;9.32;2.35;;;;;;;;;;6271037;22;20027;-92
2023/01/10 07:36:51;;;;;;;11.85;2.20;;;;;;;;;;6272297;22;20012;-92
2023/01/10 07:39:26;;;;;;;18.35;2.92;;;;;;;;;;6249033;22;20015;-91
2023/01/10 07:42:00;;;;;;;13.48;2.67;;;;;;;;;;6308959;22;20014;-92
2023/01/10 07:44:29;;;;;;;9.70;2.70;;;;;;;;;;6267944;22;20099;-91
2023/01/10 07:47:01;;;;;;;7.82;2.45;;;;;;;;;;6297118;22;20481;-92
2023/01/10 07:49:31;;;;;;;10.07;2.42;;;;;;;;;;6267585;22;20075;-91
2023/01/10 07:52:07;;;;;;;12.48;2.60;;;;;;;;;;6270093;22;20022;-91
2023/01/10 07:54:37;;;;;;;13.20;2.65;;;;;;;;;;6234589;22;20016;-91
2023/01/10 07:57:05;;;;;;;12.00;2.40;;;;;;;;;;6295252;22;20019;-91
2023/01/10 07:59:33;;;;;;;12.13;3.08;;;;;;;;;;6258441;22;20024;-91
2023/01/10 08:02:25;;;;;;;14.23;3.13;;;;;;;;;;6294936;22;20038;-92
2023/01/10 08:04:53;;;;;;;11.18;2.58;;;;;;;;;;6270962;22;20062;-91
2023/01/10 08:07:20;;;;;;;8.45;2.92;;;;;;;;;;6295956;22;20016;-90
2023/01/10 08:09:54;;;;;;;10.98;2.72;;;;;;;;;;6260536;22;20019;-91
2023/01/10 08:12:23;;;;;;;9.93;3.30;;;;;;;;;;6294294;22;20020;-91
2023/01/10 08:14:51;;;;;;;14.82;3.15;;;;;;;;;;6269795;22;20083;-92
2023/01/10 08:17:21;;;;;;;13.43;2.97;;;;;;;;;;6270585;22;20095;-91
2023/01/10 08:19:55;;;;;;;10.77;3.25;;;;;;;;;;6243463;22;20031;-91
2023/01/10 08:22:23;;;;;;;15.32;3.55;;;;;;;;;;6267420;22;20039;-92
2023/01/10 08:24:50;;;;;;;16.77;3.55;;;;;;;;;;6303028;22;20019;-91
2023/01/10 08:30:13;;;;;;;12.75;3.28;;;;;;;;;;6266779;22;20019;-92
2023/01/10 08:32:41;;;;;;;20.77;3.25;;;;;;;;;;6304751;22;20026;-92
2023/01/10 08:35:10;;;;;;;21.40;3.22;;;;;;;;;;6280564;22;20022;-91
2023/01/10 08:37:43;;;;;;;15.15;3.40;;;;;;;;;;6270010;22;20046;-92
2023/01/10 08:40:11;;;;;;;13.55;3.55;;;;;;;;;;6270142;22;20046;-92
2023/01/10 08:42:39;;;;;;;14.50;3.60;;;;;;;;;;6268726;22;20058;-92
2023/01/10 08:45:07;;;;;;;16.83;3.55;;;;;;;;;;6304916;22;20038;-92
2023/01/10 08:47:35;;;;;;;15.43;3.33;;;;;;;;;;6305657;22;20012;-92
2023/01/10 08:50:03;;;;;;;16.85;3.83;;;;;;;;;;6296528;22;20017;-92
2023/01/10 08:52:39;;;;;;;14.38;3.65;;;;;;;;;;6235606;22;20034;-91
2023/01/10 08:55:07;;;;;;;17.50;3.97;;;;;;;;;;6294246;22;20023;-92
2023/01/10 08:57:34;;;;;;;17.55;4.00;;;;;;;;;;6295431;22;20019;-92
2023/01/10 09:00:04;;;;;;;24.50;4.97;;;;;;;;;;6234717;22;20083;-92
2023/01/10 09:02:31;;;;;;;24.42;4.95;;;;;;;;;;6233152;22;20046;-92
2023/01/10 09:04:59;;;;;;;18.08;5.45;;;;;;;;;;6259734;22;20019;-92
2023/01/10 09:07:31;;;;;;;17.52;5.78;;;;;;;;;;6260430;22;20023;-91
2023/01/10 09:10:03;;;;;;;15.70;5.22;;;;;;;;;;6295257;22;20080;-91
2023/01/10 09:12:55;;;;;;;15.93;5.50;;;;;;;;;;6261431;22;20405;-92
2023/01/10 09:15:28;;;;;;;24.70;5.43;;;;;;;;;;6260382;22;20027;-92
2023/01/10 09:18:06;;;;;;;22.23;5.05;;;;;;;;;;6296111;22;20393;-92
2023/01/10 09:20:37;;;;;;;17.75;5.30;;;;;;;;;;6272014;22;20030;-92
2023/01/10 09:23:07;;;;;;;19.08;5.80;;;;;;;;;;6261929;22;20015;-92
2023/01/10 09:25:35;;;;;;;15.82;5.95;;;;;;;;;;6299768;22;20015;-92
2023/01/10 09:28:04;;;;;;;24.33;6.65;;;;;;;;;;6298577;22;20028;-91
2023/01/10 09:30:36;;;;;;;27.98;6.03;;;;;;;;;;6298330;22;20020;-92
2023/01/10 09:33:11;;;;;;;19.08;6.65;;;;;;;;;;6238778;22;20056;-91
2023/01/10 09:35:40;;;;;;;21.85;6.70;;;;;;;;;;6263455;22;20070;-92
2023/01/10 09:38:16;;;;;;;29.42;7.60;;;;;;;;;;6262429;22;20019;-92
2023/01/10 09:41:01;;;;;;;20.75;7.00;;;;;;;;;;6297836;22;20015;-92
2023/01/10 09:43:46;;;;;;;21.05;6.35;;;;;;;;;;6237818;22;20066;-91
2023/01/10 09:46:45;;;;;;;20.35;6.88;;;;;;;;;;6261343;22;20016;-93
2023/01/10 09:50:02;;;;;;;19.25;6.88;;;;;;;;;;6287689;22;20107;-92
2023/01/10 09:53:07;;;;;;;21.40;6.70;;;;;;;;;;6263532;22;20058;-92
2023/01/10 09:55:37;;;;;;;24.42;5.95;;;;;;;;;;6300395;22;20019;-92
2023/01/10 09:58:17;;;;;;;18.58;6.07;;;;;;;;;;6303848;22;20078;-92
2023/01/10 10:01:16;;;;;;;21.08;6.47;;;;;;;;;;6269908;22;20066;-92
2023/01/10 10:04:10;;;;;;;18.67;5.78;;;;;;;;;;6301940;22;20070;-92
2023/01/10 10:06:39;;;;;;;19.23;5.68;;;;;;;;;;6265476;22;20020;-92
2023/01/10 10:09:13;;;;;;;20.48;6.05;;;;;;;;;;6303144;22;20099;-91
2023/01/10 10:11:52;;;;;;;16.55;5.50;;;;;;;;;;6296931;22;20016;-92
2023/01/10 10:14:41;;;;;;;19.05;5.82;;;;;;;;;;6246163;22;20016;-92
2023/01/10 10:17:35;;;;;;;15.40;5.93;;;;;;;;;;6271725;22;20011;-92
2023/01/10 10:20:26;;;;;;;16.60;6.18;;;;;;;;;;6308700;22;20020;-92
2023/01/10 10:23:11;;;;;;;19.98;6.85;;;;;;;;;;6272745;22;20016;-91
2023/01/10 10:25:46;;;;;;;19.58;6.43;;;;;;;;;;6246920;22;20444;-92
2023/01/10 10:28:30;;;;;;;17.00;6.07;;;;;;;;;;6266931;22;20023;-92
2023/01/10 10:31:20;;;;;;;18.90;5.93;;;;;;;;;;6248413;22;20087;-92
2023/01/10 10:34:08;;;;;;;20.33;7.38;;;;;;;;;;6299155;22;20016;-92
2023/01/10 10:36:52;;;;;;;14.60;5.88;;;;;;;;;;6307893;22;20031;-92
2023/01/10 10:39:48;;;;;;;18.85;5.88;;;;;;;;;;6273400;22;20012;-92
2023/01/10 10:42:18;;;;;;;27.00;7.13;;;;;;;;;;6246798;22;20016;-92
2023/01/10 10:45:03;;;;;;;15.55;6.63;;;;;;;;;;6282993;22;20022;-92
2023/01/10 10:47:42;;;;;;;20.48;6.43;;;;;;;;;;6306645;22;20029;-92
2023/01/10 10:50:20;;;;;;;17.00;6.38;;;;;;;;;;6305170;22;20015;-91
2023/01/10 10:52:50;;;;;;;17.67;6.15;;;;;;;;;;6246751;22;20024;-92
2023/01/10 10:55:34;;;;;;;22.40;7.13;;;;;;;;;;6246121;22;20090;-92
2023/01/10 10:58:16;;;;;;;22.42;6.82;;;;;;;;;;6269999;22;20038;-92
2023/01/10 11:00:46;;;;;;;20.98;6.88;;;;;;;;;;6270498;22;20050;-91
2023/01/10 11:03:31;;;;;;;22.15;7.22;;;;;;;;;;6269004;22;20079;-91
2023/01/10 11:06:13;;;;;;;23.40;7.60;;;;;;;;;;6272401;22;20024;-92
2023/01/10 11:08:48;;;;;;;23.63;8.02;;;;;;;;;;6282747;22;20023;-92
2023/01/10 11:11:28;;;;;;;17.02;7.00;;;;;;;;;;6245468;22;20023;-92
2023/01/10 11:14:04;;;;;;;20.45;6.53;;;;;;;;;;6246427;22;20034;-92
2023/01/10 11:16:43;;;;;;;11.85;6.20;;;;;;;;;;6249049;22;20016;-91
2023/01/10 11:19:17;;;;;;;13.43;6.03;;;;;;;;;;6296705;22;20052;-90
2023/01/10 11:21:55;;;;;;;15.57;6.53;;;;;;;;;;6247102;22;20023;-91
2023/01/10 11:25:00;;;;;;;23.60;6.82;;;;;;;;;;6271194;22;20038;-92
2023/01/10 11:28:22;;;;;;;19.08;6.30;;;;;;;;;;6194170;23;20028;-92
2023/01/10 11:31:27;;;;;;;17.95;6.95;;;;;;;;;;6156196;23;20089;-92
2023/01/10 11:34:00;;;;;;;16.23;5.78;;;;;;;;;;6186264;23;20021;-92
2023/01/10 11:36:53;;;;;;;19.30;6.35;;;;;;;;;;6152558;23;20053;-92
2023/01/10 11:39:23;;;;;;;17.05;6.32;;;;;;;;;;6151021;23;20449;-91
2023/01/10 11:41:54;;;;;;;16.80;5.72;;;;;;;;;;6143870;23;20064;-91
2023/01/10 11:44:47;;;;;;;21.65;6.53;;;;;;;;;;6190411;23;20013;-91
2023/01/10 11:47:21;;;;;;;21.20;6.88;;;;;;;;;;6156817;23;20001;-91
2023/01/10 11:49:58;;;;;;;23.20;6.78;;;;;;;;;;6157313;23;20021;-91
2023/01/10 11:52:29;;;;;;;18.85;6.60;;;;;;;;;;6180977;23;20036;-91
2023/01/10 11:55:07;;;;;;;24.38;7.43;;;;;;;;;;6155415;23;20036;-91
2023/01/10 11:57:36;;;;;;;20.45;7.05;;;;;;;;;;6155763;23;20021;-91
2023/01/10 12:00:08;;;;;;;24.05;7.78;;;;;;;;;;6180404;23;20024;-92
2023/01/10 12:02:43;;;;;;;20.33;6.97;;;;;;;;;;6192400;22;20016;-91
2023/01/10 12:05:36;;;;;;;21.75;7.07;;;;;;;;;;6260236;22;20008;-91
2023/01/10 12:08:23;;;;;;;21.70;6.55;;;;;;;;;;6279998;22;20351;-91
2023/01/10 12:11:05;;;;;;;12.27;5.95;;;;;;;;;;6289594;22;20097;-91
2023/01/10 12:13:45;;;;;;;15.82;6.38;;;;;;;;;;6253128;22;20012;-90
2023/01/10 12:16:21;;;;;;;15.50;6.30;;;;;;;;;;6288185;22;20098;-90
2023/01/10 12:18:58;;;;;;;19.73;7.05;;;;;;;;;;6288823;22;20026;-90
2023/01/10 12:21:39;;;;;;;17.25;5.95;;;;;;;;;;6289911;22;20505;-90
2023/01/10 12:24:23;;;;;;;19.25;6.43;;;;;;;;;;6252428;22;20015;-90
2023/01/10 12:26:52;;;;;;;19.20;6.50;;;;;;;;;;6263792;22;20015;-91
2023/01/10 12:29:26;;;;;;;22.75;7.05;;;;;;;;;;6288466;22;20084;-90
2023/01/10 12:31:57;;;;;;;18.05;6.47;;;;;;;;;;6286985;22;20020;-90
2023/01/10 12:34:40;;;;;;;27.15;7.45;;;;;;;;;;6288683;22;20019;-90
2023/01/10 12:37:21;;;;;;;22.73;6.35;;;;;;;;;;6288060;22;20023;-91
2023/01/10 12:40:03;;;;;;;20.88;6.80;;;;;;;;;;6290019;22;20043;-91
2023/01/10 12:45:53;;;;;;;18.33;6.50;;;;;;;;;;6290746;22;20019;-92
2023/01/10 12:48:45;;;;;;;20.17;6.28;;;;;;;;;;6259531;22;20123;-90
2023/01/10 12:51:18;;;;;;;20.15;6.47;;;;;;;;;;6264075;22;20024;-92
2023/01/10 12:54:02;;;;;;;17.23;6.68;;;;;;;;;;6302126;22;20042;-91
2023/01/10 12:56:31;;;;;;;16.92;6.00;;;;;;;;;;6260254;22;20027;-91
2023/01/10 12:59:06;;;;;;;17.40;6.68;;;;;;;;;;6286748;22;20012;-90
2023/01/10 13:02:00;;;;;;;20.80;6.63;;;;;;;;;;6252868;22;20011;-90
2023/01/10 13:04:31;;;;;;;23.33;6.65;;;;;;;;;;6258480;22;20019;-90
2023/01/10 13:07:05;;;;;;;18.73;6.57;;;;;;;;;;6283567;22;20011;-91
2023/01/10 13:09:33;;;;;;;24.75;7.53;;;;;;;;;;6283008;22;20115;-90
2023/01/10 13:12:39;;;;;;;15.23;6.68;;;;;;;;;;6282709;22;20083;-90
2023/01/10 13:15:20;;;;;;;22.45;7.15;;;;;;;;;;6282530;22;20015;-90
2023/01/10 13:17:52;;;;;;;14.52;6.72;;;;;;;;;;6281740;22;20455;-90
2023/01/10 13:20:45;;;;;;;18.83;6.45;;;;;;;;;;6284196;22;20081;-90
2023/01/10 13:23:29;;;;;;;17.92;7.28;;;;;;;;;;6282286;22;20016;-90
2023/01/10 13:26:21;;;;;;;18.05;6.80;;;;;;;;;;6283186;22;20023;-90
2023/01/10 13:31:55;;;;;;;17.27;6.10;;;;;;;;;;6282171;22;20039;-90
2023/01/10 13:34:34;;;;;;;20.55;7.35;;;;;;;;;;6258188;22;20015;-91
2023/01/10 13:37:20;;;;;;;16.80;7.45;;;;;;;;;;6282301;22;20038;-90
2023/01/10 13:39:56;;;;;;;15.38;6.80;;;;;;;;;;6246362;22;20030;-90
2023/01/10 13:45:46;;;;;;;20.58;7.40;;;;;;;;;;6272364;22;20058;-90
2023/01/10 13:48:26;;;;;;;24.90;7.88;;;;;;;;;;6247435;22;20083;-90
2023/01/10 13:51:06;;;;;;;18.60;6.90;;;;;;;;;;6283370;22;20019;-91
2023/01/10 13:53:50;;;;;;;15.80;7.78;;;;;;;;;;6247046;22;20347;-90
2023/01/10 13:56:39;;;;;;;25.67;7.70;;;;;;;;;;6257610;22;20034;-90
2023/01/10 14:02:30;;;;;;;16.38;6.90;;;;;;;;;;6266543;22;20384;-89
2023/01/10 14:05:28;;;;;;;20.15;7.05;;;;;;;;;;6246883;22;20015;-89
2023/01/10 14:08:21;;;;;;;20.75;6.57;;;;;;;;;;6188961;23;20460;-89
2023/01/10 14:11:04;;;;;;;17.75;7.13;;;;;;;;;;6189110;23;20063;-89
2023/01/10 14:13:33;;;;;;;18.15;6.50;;;;;;;;;;6164911;23;20416;-89
2023/01/10 14:16:45;;;;;;;11.90;6.25;;;;;;;;;;6189953;23;20025;-89
2023/01/10 14:19:23;;;;;;;20.65;6.30;;;;;;;;;;6166668;23;20028;-90
2023/01/10 14:22:32;;;;;;;16.25;5.63;;;;;;;;;;6188347;23;20503;-89
2023/01/10 14:25:18;;;;;;;14.38;4.82;;;;;;;;;;6164452;23;20021;-90
2023/01/10 14:27:52;;;;;;;17.55;5.75;;;;;;;;;;6189802;23;20021;-89
2023/01/10 14:30:26;;;;;;;13.88;4.70;;;;;;;;;;6130835;23;20063;-89
2023/01/10 14:32:58;;;;;;;18.30;5.75;;;;;;;;;;6163100;23;20025;-89
2023/01/10 14:35:38;;;;;;;14.18;5.00;;;;;;;;;;6156030;23;20021;-89
2023/01/10 14:38:12;;;;;;;13.00;4.90;;;;;;;;;;6192044;22;20019;-90
2023/01/10 14:41:14;;;;;;;11.60;4.53;;;;;;;;;;6246251;22;20117;-90
2023/01/10 14:43:56;;;;;;;16.65;5.50;;;;;;;;;;6281967;22;20463;-89
2023/01/10 14:46:47;;;;;;;15.82;5.28;;;;;;;;;;6246189;22;20460;-89
2023/01/10 14:49:22;;;;;;;14.63;4.72;;;;;;;;;;6282385;22;20397;-90
2023/01/10 14:51:54;;;;;;;12.65;4.20;;;;;;;;;;6281926;22;20016;-89
2023/01/10 14:54:54;;;;;;;16.40;4.88;;;;;;;;;;6282540;22;20281;-89
2023/01/10 14:57:23;;;;;;;14.40;4.60;;;;;;;;;;6283756;22;20061;-92
2023/01/10 15:00:02;;;;;;;11.48;4.93;;;;;;;;;;6263818;22;20011;-91
2023/01/10 15:02:31;;;;;;;17.25;4.40;;;;;;;;;;6253806;22;20028;-91
2023/01/10 15:05:18;;;;;;;19.55;4.80;;;;;;;;;;6292240;22;20070;-91
2023/01/10 15:07:45;;;;;;;19.98;5.40;;;;;;;;;;6229237;22;20024;-91
2023/01/10 15:10:22;;;;;;;20.52;5.22;;;;;;;;;;6291736;22;20020;-91
2023/01/10 15:12:53;;;;;;;20.95;4.65;;;;;;;;;;6290326;22;20091;-92
2023/01/10 15:15:55;;;;;;;11.18;4.32;;;;;;;;;;6246650;22;20347;-92
2023/01/10 15:18:38;;;;;;;21.02;4.35;;;;;;;;;;6244111;22;20027;-92
2023/01/10 15:21:13;;;;;;;12.32;3.83;;;;;;;;;;6256430;22;20098;-92
2023/01/10 15:23:42;;;;;;;18.92;4.55;;;;;;;;;;6282693;22;20016;-91
2023/01/10 15:26:16;;;;;;;17.17;4.30;;;;;;;;;;6280361;22;20027;-91
2023/01/10 15:29:11;;;;;;;11.38;4.32;;;;;;;;;;6278199;22;20094;-90
2023/01/10 15:31:43;;;;;;;13.73;4.03;;;;;;;;;;6284855;22;20074;-91
2023/01/10 15:34:36;;;;;;;17.90;3.80;;;;;;;;;;6251722;22;20432;-92
2023/01/10 15:37:15;;;;;;;15.75;4.47;;;;;;;;;;6280869;22;20043;-92
2023/01/10 15:39:47;;;;;;;20.30;4.63;;;;;;;;;;6247199;22;20042;-92
2023/01/10 15:42:18;;;;;;;17.13;4.95;;;;;;;;;;6254297;22;20028;-92
2023/01/10 15:44:51;;;;;;;12.82;4.13;;;;;;;;;;6235537;22;20019;-92
2023/01/10 15:47:39;;;;;;;11.13;3.90;;;;;;;;;;6264522;22;20026;-92
2023/01/10 15:50:27;;;;;;;11.65;4.32;;;;;;;;;;6267811;22;20073;-91
2023/01/10 15:53:05;;;;;;;12.13;4.40;;;;;;;;;;6272978;22;20019;-91
2023/01/10 15:55:54;;;;;;;11.95;4.28;;;;;;;;;;6269729;22;20046;-92
2023/01/10 15:58:33;;;;;;;18.98;5.30;;;;;;;;;;6247851;22;20016;-92
2023/01/10 16:01:03;;;;;;;14.68;4.55;;;;;;;;;;6300271;22;20010;-91
2023/01/10 16:03:50;;;;;;;20.42;5.20;;;;;;;;;;6251293;22;20012;-92
2023/01/10 16:06:29;;;;;;;17.45;4.60;;;;;;;;;;6249673;22;20040;-93